Terminal Aerodrome Forecast
Issued by NWS Charleston, WV

Current Version | Previous Version | Graphics & Text | Print | Product List | Glossary On
Versions: 1 2 3 4 5 6 7 8 9 10 11 12 13 14 15 16 17 18 19 20 21
225
FTUS41 KRLX 102138 AAA
TAFCRW
TAF AMD
KCRW 102138Z 1022/1118 26010G18KT 5SM -SHSN SCT015 BKN025 OVC080
     FM110100 26009KT P6SM -SHSN OVC025
     FM111000 26005KT P6SM OVC030
     FM111400 25006KT P6SM BKN035=

USA.gov is the U.S. government's official web portal to all federal, state and local government web resources and services.